Time;durP1;ratioP1;P1;durP2;ratioP2;P2;SDS_P1;SDS_P2;PMS_P1;PMS_P2;Temp;Humidity;BMP_temperature;BMP_pressure;BME280_temperature;BME280_humidity;BME280_pressure;Samples;Min_cycle;Max_cycle;Signal;HPM_P1;HPM_P2
2024/02/10 00:01:49;;;;;;;10.23;5.53;;;;;;;;;;4972079;28;20077;-66
2024/02/10 00:04:17;;;;;;;13.07;6.57;;;;;;;;;;4983564;28;20098;-66
2024/02/10 00:06:45;;;;;;;10.32;5.03;;;;;;;;;;4984860;28;20038;-67
2024/02/10 00:09:12;;;;;;;14.43;5.90;;;;;;;;;;4982885;28;20047;-66
2024/02/10 00:11:38;;;;;;;9.88;5.20;;;;;;;;;;4992231;28;20168;-66
2024/02/10 00:14:05;;;;;;;10.77;5.00;;;;;;;;;;4997381;28;20107;-66
2024/02/10 00:16:33;;;;;;;12.65;5.15;;;;;;;;;;4980626;28;20335;-66
2024/02/10 00:19:06;;;;;;;10.90;5.68;;;;;;;;;;4992550;28;20046;-66
2024/02/10 00:21:33;;;;;;;13.15;5.45;;;;;;;;;;4995561;28;20502;-66
2024/02/10 00:23:59;;;;;;;13.63;6.20;;;;;;;;;;4985019;28;20048;-66
2024/02/10 00:26:26;;;;;;;14.43;5.80;;;;;;;;;;4980657;28;20057;-66
2024/02/10 00:28:55;;;;;;;13.80;6.05;;;;;;;;;;4992137;28;20053;-66
2024/02/10 00:31:24;;;;;;;10.55;5.93;;;;;;;;;;4978862;28;20949;-66
2024/02/10 00:33:52;;;;;;;13.35;6.00;;;;;;;;;;4995914;28;20135;-66
2024/02/10 00:36:18;;;;;;;9.27;5.75;;;;;;;;;;4991700;28;20054;-66
2024/02/10 00:38:45;;;;;;;12.57;5.88;;;;;;;;;;4999481;28;20058;-66
2024/02/10 00:41:13;;;;;;;16.67;5.85;;;;;;;;;;4990674;28;20162;-66
2024/02/10 00:43:42;;;;;;;15.45;6.65;;;;;;;;;;4988767;28;20215;-67
2024/02/10 00:46:10;;;;;;;9.60;5.82;;;;;;;;;;4980098;28;20062;-66
2024/02/10 00:48:38;;;;;;;14.75;6.20;;;;;;;;;;4985443;28;20101;-66
2024/02/10 00:51:05;;;;;;;15.00;7.38;;;;;;;;;;4975170;28;20058;-66
2024/02/10 00:53:33;;;;;;;10.82;5.65;;;;;;;;;;4983972;28;20124;-66
2024/02/10 00:55:59;;;;;;;12.57;6.38;;;;;;;;;;4983274;28;20205;-67
2024/02/10 00:58:26;;;;;;;11.65;6.10;;;;;;;;;;4981577;28;20038;-67
2024/02/10 01:00:53;;;;;;;12.57;6.43;;;;;;;;;;4985561;28;20060;-66
2024/02/10 01:03:19;;;;;;;15.07;6.50;;;;;;;;;;4979232;28;20395;-66
2024/02/10 01:05:47;;;;;;;13.00;6.47;;;;;;;;;;4969436;28;20100;-67
2024/02/10 01:08:13;;;;;;;14.77;6.68;;;;;;;;;;4984228;28;20073;-67
2024/02/10 01:10:39;;;;;;;15.13;6.70;;;;;;;;;;4983156;28;20050;-66
2024/02/10 01:13:06;;;;;;;12.60;6.72;;;;;;;;;;4980932;28;20050;-67
2024/02/10 01:15:32;;;;;;;16.38;6.90;;;;;;;;;;4976629;28;20045;-67
2024/02/10 01:18:01;;;;;;;15.18;7.15;;;;;;;;;;4980202;28;20057;-66
2024/02/10 01:20:28;;;;;;;18.23;6.90;;;;;;;;;;4964456;28;20409;-66
2024/02/10 01:23:00;;;;;;;11.32;6.45;;;;;;;;;;4992287;28;20073;-66
2024/02/10 01:25:30;;;;;;;14.57;6.85;;;;;;;;;;4983597;28;20505;-67
2024/02/10 01:27:56;;;;;;;17.52;7.00;;;;;;;;;;4994953;28;20046;-66
2024/02/10 01:30:22;;;;;;;16.20;6.75;;;;;;;;;;4979122;28;20049;-66
2024/02/10 01:32:48;;;;;;;16.30;7.47;;;;;;;;;;4985752;28;20149;-66
2024/02/10 01:35:17;;;;;;;13.73;6.57;;;;;;;;;;4976113;28;20054;-67
2024/02/10 01:37:44;;;;;;;14.52;6.80;;;;;;;;;;4995477;28;20050;-66
2024/02/10 01:40:11;;;;;;;12.75;7.38;;;;;;;;;;4980356;28;20045;-67
2024/02/10 01:42:38;;;;;;;15.65;7.18;;;;;;;;;;5002157;28;20046;-67
2024/02/10 01:45:08;;;;;;;15.45;6.22;;;;;;;;;;4992565;28;20077;-66
2024/02/10 01:47:36;;;;;;;12.30;7.00;;;;;;;;;;4993901;28;20090;-67
2024/02/10 01:50:03;;;;;;;12.38;6.03;;;;;;;;;;4978238;28;20073;-66
2024/02/10 01:52:30;;;;;;;15.23;6.90;;;;;;;;;;4980328;28;20121;-66
2024/02/10 01:54:56;;;;;;;20.42;7.25;;;;;;;;;;4977640;28;20054;-66
2024/02/10 01:57:22;;;;;;;15.15;7.40;;;;;;;;;;4990656;28;20054;-67
2024/02/10 01:59:48;;;;;;;16.27;6.18;;;;;;;;;;4982015;28;20049;-67
2024/02/10 02:02:15;;;;;;;15.25;6.53;;;;;;;;;;4978744;28;20547;-66
2024/02/10 02:04:43;;;;;;;17.98;7.32;;;;;;;;;;4994364;28;20045;-66
2024/02/10 02:07:09;;;;;;;13.07;6.38;;;;;;;;;;4991733;28;20560;-66
2024/02/10 02:09:36;;;;;;;14.10;6.25;;;;;;;;;;4984339;28;20474;-66
2024/02/10 02:12:07;;;;;;;15.30;6.80;;;;;;;;;;4997890;28;20052;-67
2024/02/10 02:14:41;;;;;;;13.80;6.25;;;;;;;;;;4980919;28;20045;-67
2024/02/10 02:17:09;;;;;;;14.63;6.97;;;;;;;;;;4990187;28;20057;-66
2024/02/10 02:19:40;;;;;;;13.60;6.40;;;;;;;;;;4984868;28;20066;-66
2024/02/10 02:22:09;;;;;;;11.13;6.05;;;;;;;;;;4995716;28;20052;-67
2024/02/10 02:24:35;;;;;;;12.98;5.72;;;;;;;;;;4983314;28;20046;-67
2024/02/10 02:27:02;;;;;;;10.77;5.35;;;;;;;;;;4991383;28;20769;-67
2024/02/10 02:29:29;;;;;;;10.40;6.10;;;;;;;;;;4982904;28;20068;-66
2024/02/10 02:32:00;;;;;;;14.85;5.43;;;;;;;;;;4983032;28;20057;-66
2024/02/10 02:34:26;;;;;;;14.00;6.03;;;;;;;;;;4986447;28;20050;-67
2024/02/10 02:36:53;;;;;;;14.40;6.13;;;;;;;;;;4983446;28;20483;-67
2024/02/10 02:39:20;;;;;;;10.65;6.22;;;;;;;;;;4987048;28;20429;-67
2024/02/10 02:41:46;;;;;;;17.60;7.28;;;;;;;;;;4999614;28;20489;-66
2024/02/10 02:44:15;;;;;;;17.50;6.93;;;;;;;;;;4993076;28;20032;-67
2024/02/10 02:46:42;;;;;;;11.98;5.40;;;;;;;;;;4992814;28;20426;-67
2024/02/10 02:49:08;;;;;;;15.93;5.70;;;;;;;;;;4989660;28;20049;-67
2024/02/10 02:51:35;;;;;;;14.48;6.13;;;;;;;;;;4984577;28;20052;-66
2024/02/10 02:54:02;;;;;;;20.05;6.78;;;;;;;;;;4982594;28;20051;-66
2024/02/10 02:56:28;;;;;;;15.32;6.20;;;;;;;;;;4985181;28;20049;-67
2024/02/10 02:58:55;;;;;;;14.95;7.10;;;;;;;;;;4984139;28;20060;-66
2024/02/10 03:01:23;;;;;;;18.35;6.63;;;;;;;;;;4981858;28;20144;-66
2024/02/10 03:03:50;;;;;;;14.00;6.75;;;;;;;;;;4984882;28;20054;-66
2024/02/10 03:06:20;;;;;;;16.27;6.45;;;;;;;;;;4966017;28;20466;-66
2024/02/10 03:08:47;;;;;;;14.60;6.80;;;;;;;;;;4990413;28;20264;-66
2024/02/10 03:11:17;;;;;;;11.43;6.35;;;;;;;;;;4989310;28;20043;-67
2024/02/10 03:13:44;;;;;;;11.50;6.57;;;;;;;;;;4987070;28;20135;-66
2024/02/10 03:16:11;;;;;;;12.88;6.75;;;;;;;;;;4996649;28;20049;-66
2024/02/10 03:18:41;;;;;;;14.82;7.18;;;;;;;;;;4991986;28;20054;-67
2024/02/10 03:21:09;;;;;;;16.35;7.03;;;;;;;;;;4977337;28;20058;-67
2024/02/10 03:23:35;;;;;;;17.15;6.50;;;;;;;;;;4980203;28;20053;-66
2024/02/10 03:26:03;;;;;;;13.25;6.70;;;;;;;;;;4989058;28;20204;-66
2024/02/10 03:28:29;;;;;;;15.02;7.43;;;;;;;;;;4981506;28;20061;-67
2024/02/10 03:30:55;;;;;;;17.45;7.13;;;;;;;;;;4988246;28;20077;-67
2024/02/10 03:33:21;;;;;;;15.82;7.50;;;;;;;;;;4975693;28;20115;-67
2024/02/10 03:35:48;;;;;;;13.27;6.97;;;;;;;;;;4972710;28;20073;-67
2024/02/10 03:38:14;;;;;;;19.95;8.02;;;;;;;;;;4986868;28;20116;-66
2024/02/10 03:40:40;;;;;;;14.70;7.35;;;;;;;;;;4979380;28;20107;-67
2024/02/10 03:43:06;;;;;;;14.45;7.07;;;;;;;;;;4974248;28;20054;-67
2024/02/10 03:45:33;;;;;;;17.83;7.70;;;;;;;;;;4987702;28;20408;-66
2024/02/10 03:48:03;;;;;;;13.80;7.43;;;;;;;;;;4989234;28;20474;-66
2024/02/10 03:50:30;;;;;;;17.10;6.85;;;;;;;;;;4980648;28;20133;-67
2024/02/10 03:52:57;;;;;;;12.02;6.90;;;;;;;;;;4982391;28;20160;-67
2024/02/10 03:55:24;;;;;;;15.52;7.53;;;;;;;;;;4981779;28;20167;-67
2024/02/10 03:57:53;;;;;;;19.55;7.25;;;;;;;;;;4984880;28;20046;-66
2024/02/10 04:00:25;;;;;;;20.20;7.18;;;;;;;;;;4982821;28;20062;-66
2024/02/10 04:02:52;;;;;;;14.57;7.03;;;;;;;;;;4982822;28;20393;-66
2024/02/10 04:05:18;;;;;;;16.63;7.05;;;;;;;;;;4985794;28;20410;-66
2024/02/10 04:07:49;;;;;;;13.18;7.53;;;;;;;;;;4995198;28;20051;-67
2024/02/10 04:10:16;;;;;;;15.73;7.28;;;;;;;;;;4982715;28;20046;-66
2024/02/10 04:12:42;;;;;;;14.60;7.15;;;;;;;;;;4981225;28;20037;-67
2024/02/10 04:15:15;;;;;;;16.58;7.13;;;;;;;;;;4998291;28;20042;-66
2024/02/10 04:17:48;;;;;;;18.83;7.05;;;;;;;;;;4994368;28;20121;-66
2024/02/10 04:20:18;;;;;;;17.52;8.68;;;;;;;;;;4983487;28;20065;-67
2024/02/10 04:22:45;;;;;;;20.73;8.35;;;;;;;;;;4983761;28;20050;-67
2024/02/10 04:25:14;;;;;;;15.43;7.20;;;;;;;;;;4980029;28;20058;-66
2024/02/10 04:27:41;;;;;;;19.90;8.85;;;;;;;;;;4980895;28;20717;-67
2024/02/10 04:30:10;;;;;;;14.52;8.15;;;;;;;;;;4981884;28;20046;-67
2024/02/10 04:32:47;;;;;;;14.23;7.63;;;;;;;;;;4992375;28;20588;-66
2024/02/10 04:35:14;;;;;;;18.08;7.25;;;;;;;;;;4982789;28;20604;-67
2024/02/10 04:37:51;;;;;;;19.42;7.85;;;;;;;;;;5000685;28;20116;-66
2024/02/10 04:40:17;;;;;;;13.82;8.43;;;;;;;;;;4988731;28;20057;-66
2024/02/10 04:42:43;;;;;;;15.13;8.20;;;;;;;;;;4982693;28;20058;-67
2024/02/10 04:45:10;;;;;;;16.30;8.85;;;;;;;;;;4983516;28;20057;-67
2024/02/10 04:47:37;;;;;;;14.15;7.97;;;;;;;;;;4997693;28;20034;-67
2024/02/10 04:50:03;;;;;;;18.40;10.23;;;;;;;;;;4976366;28;20458;-66
2024/02/10 04:52:29;;;;;;;19.27;9.30;;;;;;;;;;4980826;28;20529;-66
2024/02/10 04:54:57;;;;;;;21.90;9.25;;;;;;;;;;4984226;28;20038;-67
2024/02/10 04:57:28;;;;;;;14.25;8.40;;;;;;;;;;4980164;28;20054;-66
2024/02/10 04:59:58;;;;;;;15.20;8.38;;;;;;;;;;4980813;28;20062;-66
2024/02/10 05:02:24;;;;;;;19.58;8.27;;;;;;;;;;4979769;28;20047;-66
2024/02/10 05:04:51;;;;;;;16.77;8.90;;;;;;;;;;4979747;28;20129;-67
2024/02/10 05:07:19;;;;;;;19.08;8.25;;;;;;;;;;4992591;28;20415;-67
2024/02/10 05:09:45;;;;;;;15.20;8.43;;;;;;;;;;4984289;28;20133;-66
2024/02/10 05:12:12;;;;;;;19.38;9.75;;;;;;;;;;4980343;28;20129;-66
2024/02/10 05:14:38;;;;;;;17.05;8.68;;;;;;;;;;4990324;28;20149;-66
2024/02/10 05:17:04;;;;;;;16.88;9.27;;;;;;;;;;4989695;28;20061;-67
2024/02/10 05:19:33;;;;;;;20.02;9.68;;;;;;;;;;4993454;28;20077;-66
2024/02/10 05:22:08;;;;;;;16.58;9.07;;;;;;;;;;4982275;28;20145;-66
2024/02/10 05:24:40;;;;;;;19.92;9.57;;;;;;;;;;4990537;28;20144;-66
2024/02/10 05:27:08;;;;;;;17.27;8.88;;;;;;;;;;4990694;28;20061;-67
2024/02/10 05:29:35;;;;;;;15.30;8.07;;;;;;;;;;4993273;28;20046;-66
2024/02/10 05:32:04;;;;;;;17.15;8.98;;;;;;;;;;4989121;28;20172;-67
2024/02/10 05:34:30;;;;;;;15.50;8.90;;;;;;;;;;4973579;28;20065;-66
2024/02/10 05:37:00;;;;;;;17.55;9.07;;;;;;;;;;4982792;28;21878;-67
2024/02/10 05:39:26;;;;;;;17.52;9.57;;;;;;;;;;4977887;28;20062;-66
2024/02/10 05:41:54;;;;;;;18.45;9.30;;;;;;;;;;4981084;28;20397;-67
2024/02/10 05:44:22;;;;;;;20.13;9.85;;;;;;;;;;4981607;28;20057;-67
2024/02/10 05:46:49;;;;;;;19.65;9.93;;;;;;;;;;4991452;28;20494;-66
2024/02/10 05:49:16;;;;;;;19.35;9.05;;;;;;;;;;4980852;28;20040;-66
2024/02/10 05:51:42;;;;;;;21.88;9.57;;;;;;;;;;4981086;28;20494;-66
2024/02/10 05:54:08;;;;;;;17.52;10.27;;;;;;;;;;4996660;28;20439;-66
2024/02/10 05:56:35;;;;;;;16.08;10.02;;;;;;;;;;4969021;28;20061;-67
2024/02/10 05:59:05;;;;;;;19.67;10.63;;;;;;;;;;4976460;28;20064;-67
2024/02/10 06:01:31;;;;;;;24.42;10.82;;;;;;;;;;4979653;28;20496;-66
2024/02/10 06:03:57;;;;;;;20.60;10.68;;;;;;;;;;4978204;28;20049;-66
2024/02/10 06:06:24;;;;;;;22.70;11.55;;;;;;;;;;4977837;28;20050;-66
2024/02/10 06:08:50;;;;;;;20.48;11.57;;;;;;;;;;4980427;28;20108;-66
2024/02/10 06:11:19;;;;;;;19.65;11.93;;;;;;;;;;4989234;28;20501;-67
2024/02/10 06:13:50;;;;;;;19.75;11.18;;;;;;;;;;4979573;28;20089;-66
2024/02/10 06:16:16;;;;;;;20.20;11.27;;;;;;;;;;4988012;28;20050;-66
2024/02/10 06:18:42;;;;;;;21.50;11.57;;;;;;;;;;4987829;28;20214;-66
2024/02/10 06:21:09;;;;;;;19.80;11.43;;;;;;;;;;4976888;28;20058;-67
2024/02/10 06:23:35;;;;;;;20.15;11.68;;;;;;;;;;4979284;28;20669;-66
2024/02/10 06:26:01;;;;;;;20.77;12.18;;;;;;;;;;4979371;28;20093;-66
2024/02/10 06:28:29;;;;;;;19.40;11.52;;;;;;;;;;4981216;28;20046;-67
2024/02/10 06:30:55;;;;;;;23.92;11.35;;;;;;;;;;4980594;28;20062;-67
2024/02/10 06:33:23;;;;;;;23.05;12.10;;;;;;;;;;4980341;28;20068;-67
2024/02/10 06:35:49;;;;;;;18.10;11.48;;;;;;;;;;4984474;28;20065;-67
2024/02/10 06:38:16;;;;;;;18.27;11.30;;;;;;;;;;5004395;28;20042;-67
2024/02/10 06:40:43;;;;;;;20.02;11.57;;;;;;;;;;5009098;28;20188;-66
2024/02/10 06:43:12;;;;;;;22.63;12.10;;;;;;;;;;4991728;28;20546;-67
2024/02/10 06:45:40;;;;;;;20.98;11.75;;;;;;;;;;4988939;28;20078;-66
2024/02/10 06:48:09;;;;;;;20.77;12.18;;;;;;;;;;4981783;28;20057;-66
2024/02/10 06:50:36;;;;;;;26.15;12.15;;;;;;;;;;4999534;28;20050;-67
2024/02/10 06:53:02;;;;;;;17.58;12.05;;;;;;;;;;4987249;28;20038;-67
2024/02/10 06:55:28;;;;;;;15.80;11.98;;;;;;;;;;4986910;28;20504;-67
2024/02/10 06:57:55;;;;;;;24.98;11.70;;;;;;;;;;4996597;28;20037;-67
2024/02/10 07:00:22;;;;;;;19.10;11.38;;;;;;;;;;4993428;28;20097;-67
2024/02/10 07:02:49;;;;;;;19.50;11.50;;;;;;;;;;4990475;28;20394;-67
2024/02/10 07:05:16;;;;;;;20.42;11.88;;;;;;;;;;4981746;28;20050;-67
2024/02/10 07:07:43;;;;;;;18.55;11.43;;;;;;;;;;4995478;28;21106;-66
2024/02/10 07:10:13;;;;;;;19.60;11.77;;;;;;;;;;4985883;28;20128;-67
2024/02/10 07:12:43;;;;;;;20.35;12.00;;;;;;;;;;4998323;28;20050;-68
2024/02/10 07:15:12;;;;;;;20.98;11.75;;;;;;;;;;4981181;28;20451;-66
2024/02/10 07:17:43;;;;;;;21.63;12.35;;;;;;;;;;4985139;28;20042;-66
2024/02/10 07:20:15;;;;;;;21.17;12.60;;;;;;;;;;4994087;28;20069;-66
2024/02/10 07:22:41;;;;;;;20.33;12.68;;;;;;;;;;5000656;28;20180;-66
2024/02/10 07:25:07;;;;;;;21.75;12.65;;;;;;;;;;4987153;28;20046;-66
2024/02/10 07:27:36;;;;;;;22.73;12.80;;;;;;;;;;4987200;28;20034;-67
2024/02/10 07:30:03;;;;;;;22.00;13.48;;;;;;;;;;4977410;28;20111;-67
2024/02/10 07:32:32;;;;;;;19.48;12.68;;;;;;;;;;4970270;28;20574;-66
2024/02/10 07:34:59;;;;;;;21.95;12.75;;;;;;;;;;4982158;28;20069;-68
2024/02/10 07:37:25;;;;;;;27.10;13.57;;;;;;;;;;4975546;28;20140;-67
2024/02/10 07:39:51;;;;;;;21.90;12.90;;;;;;;;;;4968704;28;20058;-66
2024/02/10 07:42:20;;;;;;;23.17;13.75;;;;;;;;;;4981285;28;20139;-66
2024/02/10 07:44:49;;;;;;;23.50;14.30;;;;;;;;;;4981721;28;20053;-67
2024/02/10 07:47:19;;;;;;;25.20;14.68;;;;;;;;;;4994016;28;20121;-67
2024/02/10 07:49:48;;;;;;;21.77;13.60;;;;;;;;;;4981589;28;20042;-66
2024/02/10 07:52:15;;;;;;;20.27;13.57;;;;;;;;;;4983110;28;20054;-66
2024/02/10 07:54:41;;;;;;;24.63;13.55;;;;;;;;;;4991049;28;20042;-66
2024/02/10 07:57:14;;;;;;;26.67;14.18;;;;;;;;;;4995135;28;20517;-66
2024/02/10 07:59:40;;;;;;;26.13;14.02;;;;;;;;;;4979687;28;20061;-66
2024/02/10 08:02:09;;;;;;;22.90;13.07;;;;;;;;;;4963795;28;20042;-66
2024/02/10 08:04:35;;;;;;;25.65;14.60;;;;;;;;;;4994681;28;20362;-66
2024/02/10 08:07:01;;;;;;;24.25;13.82;;;;;;;;;;4990902;28;20057;-66
2024/02/10 08:09:27;;;;;;;24.33;14.07;;;;;;;;;;4977711;28;20355;-66
2024/02/10 08:11:53;;;;;;;23.05;13.43;;;;;;;;;;4982634;28;21393;-66
2024/02/10 08:14:20;;;;;;;24.50;15.10;;;;;;;;;;4978874;28;20065;-66
2024/02/10 08:16:49;;;;;;;29.73;15.95;;;;;;;;;;4978952;28;20117;-66
2024/02/10 08:19:18;;;;;;;25.33;15.70;;;;;;;;;;4988286;28;20042;-65
2024/02/10 08:21:44;;;;;;;28.35;15.77;;;;;;;;;;5003553;28;20054;-66
2024/02/10 08:24:11;;;;;;;23.17;15.15;;;;;;;;;;4985319;28;20050;-66
2024/02/10 08:26:37;;;;;;;25.95;15.13;;;;;;;;;;4988442;28;20052;-65
2024/02/10 08:29:04;;;;;;;21.23;14.82;;;;;;;;;;4999770;28;20042;-65
2024/02/10 08:31:34;;;;;;;25.70;16.75;;;;;;;;;;4999684;28;20049;-67
2024/02/10 08:34:01;;;;;;;26.08;16.45;;;;;;;;;;5000116;28;20611;-65
2024/02/10 08:36:29;;;;;;;27.30;15.85;;;;;;;;;;5002108;28;20133;-65
2024/02/10 08:39:03;;;;;;;24.98;15.30;;;;;;;;;;5001066;28;20133;-65
2024/02/10 08:41:30;;;;;;;30.13;16.38;;;;;;;;;;4972891;28;20100;-65
2024/02/10 08:43:56;;;;;;;23.70;15.45;;;;;;;;;;5000754;28;20073;-65
2024/02/10 08:46:24;;;;;;;25.27;16.00;;;;;;;;;;5001200;28;20068;-65
2024/02/10 08:48:51;;;;;;;23.60;15.68;;;;;;;;;;4999997;28;20043;-65
2024/02/10 08:51:17;;;;;;;24.17;16.48;;;;;;;;;;5000660;28;20050;-65
2024/02/10 08:53:44;;;;;;;24.40;16.02;;;;;;;;;;4993865;28;20065;-66
2024/02/10 08:56:11;;;;;;;25.73;16.15;;;;;;;;;;4992066;28;20069;-65
2024/02/10 08:58:40;;;;;;;26.13;15.60;;;;;;;;;;4989565;28;20049;-66
2024/02/10 09:01:15;;;;;;;26.67;16.45;;;;;;;;;;5001344;28;20034;-66
2024/02/10 09:03:52;;;;;;;24.17;15.32;;;;;;;;;;5001180;28;20049;-66
2024/02/10 09:06:25;;;;;;;27.80;15.60;;;;;;;;;;4985920;28;20401;-65
2024/02/10 09:08:51;;;;;;;24.37;15.77;;;;;;;;;;4987896;28;20210;-65
2024/02/10 09:11:18;;;;;;;25.23;16.25;;;;;;;;;;4987047;28;20128;-65
2024/02/10 09:13:45;;;;;;;23.02;14.93;;;;;;;;;;4983321;28;20114;-66
2024/02/10 09:16:11;;;;;;;23.02;15.48;;;;;;;;;;4988157;28;20049;-65
2024/02/10 09:18:42;;;;;;;26.17;15.23;;;;;;;;;;4998081;28;20111;-65
2024/02/10 09:21:09;;;;;;;25.38;16.30;;;;;;;;;;4997223;28;20035;-66
2024/02/10 09:23:35;;;;;;;24.20;15.13;;;;;;;;;;4996537;28;20046;-66
2024/02/10 09:26:02;;;;;;;24.20;16.00;;;;;;;;;;4990646;28;20414;-66
2024/02/10 09:28:29;;;;;;;24.90;16.92;;;;;;;;;;4990495;28;20045;-66
2024/02/10 09:30:56;;;;;;;24.98;15.80;;;;;;;;;;4996466;28;20048;-66
2024/02/10 09:33:22;;;;;;;26.67;16.60;;;;;;;;;;4984426;28;20059;-66
2024/02/10 09:35:50;;;;;;;26.92;17.13;;;;;;;;;;4984884;28;20057;-66
2024/02/10 09:38:19;;;;;;;22.65;15.88;;;;;;;;;;4984833;28;20050;-66
2024/02/10 09:40:46;;;;;;;24.90;17.38;;;;;;;;;;4984778;28;20107;-66
2024/02/10 09:43:15;;;;;;;23.90;16.70;;;;;;;;;;4981854;28;20138;-66
2024/02/10 09:45:45;;;;;;;28.35;17.83;;;;;;;;;;4999851;28;20077;-66
2024/02/10 09:48:18;;;;;;;24.50;17.40;;;;;;;;;;4987952;28;20053;-66
2024/02/10 09:50:45;;;;;;;23.35;15.80;;;;;;;;;;4997974;28;20088;-66
2024/02/10 09:53:12;;;;;;;24.38;16.33;;;;;;;;;;4985380;28;20130;-66
2024/02/10 09:55:38;;;;;;;26.88;17.38;;;;;;;;;;5001338;28;21178;-66
2024/02/10 09:58:06;;;;;;;22.85;15.63;;;;;;;;;;4987279;28;20049;-66
2024/02/10 10:00:36;;;;;;;22.13;14.85;;;;;;;;;;5012036;28;20049;-66
2024/02/10 10:03:03;;;;;;;27.02;16.05;;;;;;;;;;4986544;28;20048;-66
2024/02/10 10:05:29;;;;;;;23.70;14.70;;;;;;;;;;4980846;28;20512;-66
2024/02/10 10:07:56;;;;;;;25.00;17.25;;;;;;;;;;4986654;28;20044;-66
2024/02/10 10:10:23;;;;;;;23.02;14.88;;;;;;;;;;4988286;28;20057;-66
2024/02/10 10:12:50;;;;;;;21.38;14.32;;;;;;;;;;4997552;28;20129;-66
2024/02/10 10:15:16;;;;;;;22.50;13.68;;;;;;;;;;4994551;28;20050;-66
2024/02/10 10:17:42;;;;;;;20.65;13.85;;;;;;;;;;4967115;28;20050;-66
2024/02/10 10:20:09;;;;;;;21.50;14.32;;;;;;;;;;4986570;28;20049;-74
2024/02/10 10:22:37;;;;;;;22.95;13.95;;;;;;;;;;4990287;28;20371;-66
2024/02/10 10:25:03;;;;;;;23.23;14.43;;;;;;;;;;5004239;28;20038;-66
2024/02/10 10:27:30;;;;;;;21.40;15.13;;;;;;;;;;5000058;28;20057;-69
2024/02/10 10:29:57;;;;;;;20.83;14.65;;;;;;;;;;4976948;28;20082;-66
2024/02/10 10:32:23;;;;;;;24.92;14.50;;;;;;;;;;4968066;28;20133;-66
2024/02/10 10:34:50;;;;;;;23.38;13.50;;;;;;;;;;4971573;28;20061;-66
2024/02/10 10:37:18;;;;;;;21.85;14.10;;;;;;;;;;5001131;28;20042;-66
2024/02/10 10:39:45;;;;;;;19.85;13.20;;;;;;;;;;4991123;28;20069;-66
2024/02/10 10:42:16;;;;;;;23.27;13.80;;;;;;;;;;4993165;28;20041;-66
2024/02/10 10:44:42;;;;;;;21.65;13.52;;;;;;;;;;4986904;28;20049;-66
2024/02/10 10:47:10;;;;;;;16.63;12.23;;;;;;;;;;4985996;28;20224;-66
2024/02/10 10:49:36;;;;;;;18.70;13.52;;;;;;;;;;4981944;28;20047;-66
2024/02/10 10:52:05;;;;;;;19.17;13.50;;;;;;;;;;4984081;28;20049;-66
2024/02/10 10:54:33;;;;;;;19.80;12.48;;;;;;;;;;5004198;28;20054;-66
2024/02/10 10:57:02;;;;;;;17.65;12.77;;;;;;;;;;4999579;28;20502;-66
2024/02/10 10:59:35;;;;;;;19.40;12.60;;;;;;;;;;5012671;28;20121;-66
2024/02/10 11:02:02;;;;;;;20.50;11.70;;;;;;;;;;4999258;28;20069;-66
2024/02/10 11:04:33;;;;;;;19.10;12.27;;;;;;;;;;5001766;28;20042;-66
2024/02/10 11:06:59;;;;;;;17.80;12.38;;;;;;;;;;5001613;28;20042;-66
2024/02/10 11:09:26;;;;;;;17.75;12.07;;;;;;;;;;4999577;28;20501;-66
2024/02/10 11:11:52;;;;;;;18.35;12.50;;;;;;;;;;4991369;28;20053;-66
2024/02/10 11:14:19;;;;;;;17.38;11.27;;;;;;;;;;4995761;28;20496;-66
2024/02/10 11:16:45;;;;;;;15.82;11.65;;;;;;;;;;5011147;28;20083;-66
2024/02/10 11:19:12;;;;;;;16.15;10.70;;;;;;;;;;4999746;28;20057;-66
2024/02/10 11:21:39;;;;;;;16.00;9.75;;;;;;;;;;4994586;28;20056;-66
2024/02/10 11:24:05;;;;;;;15.98;10.98;;;;;;;;;;5010238;28;20049;-66
2024/02/10 11:26:35;;;;;;;13.93;9.82;;;;;;;;;;4989399;28;20349;-66
2024/02/10 11:29:01;;;;;;;13.50;9.48;;;;;;;;;;4988840;28;20123;-65
2024/02/10 11:31:29;;;;;;;15.70;9.68;;;;;;;;;;4987915;28;20364;-66
2024/02/10 11:34:00;;;;;;;16.95;10.02;;;;;;;;;;4989520;28;20512;-66
2024/02/10 11:36:28;;;;;;;14.88;9.93;;;;;;;;;;5002552;28;20145;-66
2024/02/10 11:38:54;;;;;;;13.93;9.57;;;;;;;;;;5005595;28;20096;-66
2024/02/10 11:41:21;;;;;;;11.63;8.35;;;;;;;;;;5013134;28;20447;-66
2024/02/10 11:43:50;;;;;;;16.58;9.80;;;;;;;;;;5000796;28;20080;-66
2024/02/10 11:46:16;;;;;;;17.10;9.20;;;;;;;;;;5002403;28;20049;-66
2024/02/10 11:48:43;;;;;;;16.65;9.43;;;;;;;;;;4996941;28;20041;-66
2024/02/10 11:51:09;;;;;;;15.88;9.38;;;;;;;;;;4990875;28;20145;-72
2024/02/10 11:53:35;;;;;;;13.95;8.85;;;;;;;;;;5001050;28;20081;-71
2024/02/10 11:56:05;;;;;;;18.67;10.20;;;;;;;;;;5000887;28;20045;-71
2024/02/10 11:58:32;;;;;;;14.73;8.75;;;;;;;;;;4992871;28;20081;-66
2024/02/10 12:00:58;;;;;;;16.60;10.02;;;;;;;;;;4998583;28;20042;-66
2024/02/10 12:03:25;;;;;;;13.50;9.07;;;;;;;;;;4990706;28;20057;-66
2024/02/10 12:05:53;;;;;;;15.52;11.10;;;;;;;;;;4987395;28;20394;-66
2024/02/10 12:08:19;;;;;;;13.70;9.65;;;;;;;;;;4997106;28;20042;-66
2024/02/10 12:10:46;;;;;;;15.98;10.10;;;;;;;;;;4985110;28;20049;-66
2024/02/10 12:13:12;;;;;;;15.20;9.85;;;;;;;;;;4997794;28;20046;-66
2024/02/10 12:15:38;;;;;;;16.25;10.00;;;;;;;;;;4978862;28;20053;-66
2024/02/10 12:18:05;;;;;;;16.38;10.05;;;;;;;;;;4991078;28;20095;-66
2024/02/10 12:20:34;;;;;;;15.80;9.00;;;;;;;;;;4984067;28;20065;-65
2024/02/10 12:23:02;;;;;;;16.65;10.02;;;;;;;;;;4984993;28;20038;-66
2024/02/10 12:25:28;;;;;;;18.52;10.15;;;;;;;;;;4985724;28;20705;-66
2024/02/10 12:27:54;;;;;;;15.68;9.40;;;;;;;;;;4994064;28;20453;-66
2024/02/10 12:30:20;;;;;;;15.63;10.65;;;;;;;;;;4988330;28;20509;-66
2024/02/10 12:32:51;;;;;;;15.48;9.80;;;;;;;;;;4987422;28;20042;-66
2024/02/10 12:35:17;;;;;;;13.07;8.95;;;;;;;;;;4992964;28;20406;-66
2024/02/10 12:37:47;;;;;;;15.27;9.88;;;;;;;;;;4995782;28;20044;-66
2024/02/10 12:40:14;;;;;;;14.63;9.57;;;;;;;;;;4979645;28;20459;-66
2024/02/10 12:42:42;;;;;;;13.40;9.30;;;;;;;;;;4966595;28;20055;-66
2024/02/10 12:45:11;;;;;;;14.32;9.52;;;;;;;;;;4985170;28;20053;-67
2024/02/10 12:47:37;;;;;;;19.35;10.00;;;;;;;;;;4986037;28;20046;-78
2024/02/10 12:50:07;;;;;;;13.25;8.93;;;;;;;;;;4967398;28;20133;-66
2024/02/10 12:52:33;;;;;;;17.98;9.85;;;;;;;;;;4985661;28;20124;-66
2024/02/10 12:55:00;;;;;;;15.40;10.15;;;;;;;;;;4995803;28;20121;-66
2024/02/10 12:57:27;;;;;;;16.00;9.20;;;;;;;;;;4988476;28;20057;-66
2024/02/10 12:59:55;;;;;;;14.88;9.55;;;;;;;;;;5004427;28;20045;-66
2024/02/10 13:02:21;;;;;;;15.73;9.23;;;;;;;;;;4988020;28;20045;-66
2024/02/10 13:04:48;;;;;;;13.07;9.32;;;;;;;;;;4969658;28;20489;-66
2024/02/10 13:07:15;;;;;;;16.40;9.35;;;;;;;;;;5006105;28;20057;-67
2024/02/10 13:09:43;;;;;;;13.05;9.23;;;;;;;;;;4989818;28;20046;-66
2024/02/10 13:12:09;;;;;;;13.35;8.75;;;;;;;;;;4988501;28;20156;-66
2024/02/10 13:14:35;;;;;;;14.15;8.40;;;;;;;;;;4998165;28;20070;-66
2024/02/10 13:17:02;;;;;;;13.20;8.65;;;;;;;;;;5000619;28;20038;-66
2024/02/10 13:19:28;;;;;;;12.73;8.90;;;;;;;;;;4969124;28;20057;-66
2024/02/10 13:21:54;;;;;;;11.45;8.75;;;;;;;;;;4989626;28;20762;-66
2024/02/10 13:24:24;;;;;;;12.13;8.90;;;;;;;;;;4986200;28;20049;-66
2024/02/10 13:26:50;;;;;;;12.43;8.48;;;;;;;;;;4998178;28;20065;-66
2024/02/10 13:29:20;;;;;;;11.60;8.25;;;;;;;;;;5005481;28;20041;-67
2024/02/10 13:31:46;;;;;;;16.27;10.38;;;;;;;;;;4991549;28;20046;-67
2024/02/10 13:34:13;;;;;;;14.38;9.23;;;;;;;;;;4993732;28;20452;-67
2024/02/10 14:00:50;;;;;;;13.65;8.52;;;;;;;;;;4987824;28;20041;-67
2024/02/10 14:03:16;;;;;;;11.65;7.55;;;;;;;;;;5005114;28;20057;-67
2024/02/10 14:10:55;;;;;;;13.07;8.35;;;;;;;;;;5006170;28;20045;-67
2024/02/10 14:13:23;;;;;;;13.80;9.35;;;;;;;;;;4988684;28;20053;-67
2024/02/10 14:15:54;;;;;;;15.82;9.50;;;;;;;;;;4985014;28;20077;-67
2024/02/10 14:18:25;;;;;;;16.65;9.75;;;;;;;;;;4992011;28;20046;-67
2024/02/10 14:20:54;;;;;;;13.63;8.98;;;;;;;;;;5001034;28;20105;-67
2024/02/10 14:23:24;;;;;;;15.05;9.50;;;;;;;;;;4991322;28;20073;-67
2024/02/10 14:25:51;;;;;;;13.75;9.00;;;;;;;;;;5005886;28;20045;-66
2024/02/10 14:28:34;;;;;;;13.50;9.50;;;;;;;;;;5007134;28;20038;-67
2024/02/10 14:31:02;;;;;;;13.10;9.07;;;;;;;;;;4982871;28;20050;-67
2024/02/10 14:33:33;;;;;;;15.32;9.57;;;;;;;;;;5001285;28;20042;-66
2024/02/10 14:41:22;;;;;;;10.85;8.30;;;;;;;;;;4982152;28;20580;-67
2024/02/10 14:43:49;;;;;;;14.40;10.50;;;;;;;;;;4982795;28;20041;-66
2024/02/10 14:46:16;;;;;;;13.15;9.25;;;;;;;;;;4995207;28;20057;-66
2024/02/10 14:48:43;;;;;;;17.35;9.27;;;;;;;;;;4972639;28;20069;-66
2024/02/10 14:51:11;;;;;;;14.63;9.23;;;;;;;;;;4980581;28;20050;-66
2024/02/10 14:53:39;;;;;;;11.63;8.52;;;;;;;;;;4983791;28;20042;-66
2024/02/10 14:56:12;;;;;;;13.75;9.23;;;;;;;;;;4969232;28;20553;-66
2024/02/10 14:58:41;;;;;;;11.75;8.10;;;;;;;;;;4996333;28;20409;-65
2024/02/10 15:01:08;;;;;;;15.70;9.07;;;;;;;;;;5003878;28;20122;-66